N649C EGTK-EGHR
Flight info
| Callsign | N649C |
|---|---|
| Flight time | N/A |
| Altitude | 2500 |
| Route | EGHR VFR TO EGHJ |
| Aircraft | C210/L-V/N |
Departure
| Time | 2026-04-16 13:46 |
|---|---|
| Airport | London Oxford Airport (EGTK) |
Arrival
| Time | N/A |
|---|---|
| Airport | Goodwood Aerodrome (EGHR) |
| Time | Latitude | Longitude | Altitude | Speed | Heading |
|---|---|---|---|---|---|
| 2026-04-16 13:44 | 51.84256 | -1.31824 | 267 ft | 0 kts | 191° |
| 2026-04-16 13:45 | 51.84249 | -1.31827 | 267 ft | 11 kts | 192° |
| 2026-04-16 13:45 | 51.83991 | -1.31907 | 267 ft | 61 kts | 191° |
| 2026-04-16 13:46 | 51.83474 | -1.32107 | 363 ft | 84 kts | 196° |
| 2026-04-16 13:46 | 51.82883 | -1.32306 | 613 ft | 90 kts | 193° |
| 2026-04-16 13:46 | 51.82279 | -1.32390 | 988 ft | 82 kts | 190° |
| 2026-04-16 13:46 | 51.81701 | -1.32431 | 1267 ft | 87 kts | 191° |
| 2026-04-16 13:47 | 51.81088 | -1.32329 | 1553 ft | 95 kts | 167° |
| 2026-04-16 13:47 | 51.80616 | -1.31493 | 1779 ft | 114 kts | 117° |
| 2026-04-16 13:47 | 51.80526 | -1.30164 | 1955 ft | 121 kts | 98° |
| 2026-04-16 13:47 | 51.80486 | -1.28801 | 2201 ft | 124 kts | 98° |
| 2026-04-16 13:48 | 51.80346 | -1.27387 | 2355 ft | 130 kts | 113° |
| 2026-04-16 13:48 | 51.79952 | -1.26053 | 2505 ft | 135 kts | 126° |
| 2026-04-16 13:48 | 51.79411 | -1.24897 | 2761 ft | 128 kts | 140° |
| 2026-04-16 13:48 | 51.78741 | -1.23955 | 2934 ft | 127 kts | 153° |
| 2026-04-16 13:49 | 51.77967 | -1.23328 | 3131 ft | 123 kts | 167° |
| 2026-04-16 13:49 | 51.77153 | -1.23012 | 3318 ft | 118 kts | 179° |
| 2026-04-16 13:49 | 51.76332 | -1.22893 | 3349 ft | 120 kts | 181° |
| 2026-04-16 13:49 | 51.75484 | -1.22858 | 3359 ft | 123 kts | 185° |
| 2026-04-16 13:50 | 51.74625 | -1.22823 | 3395 ft | 124 kts | 184° |
| 2026-04-16 13:50 | 51.73759 | -1.22792 | 3440 ft | 124 kts | 185° |
| 2026-04-16 13:50 | 51.72898 | -1.22746 | 3487 ft | 123 kts | 184° |
| 2026-04-16 13:50 | 51.72023 | -1.22707 | 3493 ft | 129 kts | 185° |
| 2026-04-16 13:51 | 51.71128 | -1.22683 | 3525 ft | 131 kts | 185° |
| 2026-04-16 13:51 | 51.70205 | -1.22662 | 3527 ft | 135 kts | 185° |
| 2026-04-16 13:51 | 51.69266 | -1.22647 | 3527 ft | 135 kts | 184° |
| 2026-04-16 13:51 | 51.68326 | -1.22642 | 3529 ft | 135 kts | 185° |
| 2026-04-16 13:52 | 51.67386 | -1.22641 | 3527 ft | 135 kts | 185° |
| 2026-04-16 13:52 | 51.66444 | -1.22643 | 3527 ft | 136 kts | 185° |
| 2026-04-16 13:52 | 51.65498 | -1.22647 | 3529 ft | 137 kts | 185° |
| 2026-04-16 13:52 | 51.64542 | -1.22661 | 3529 ft | 138 kts | 185° |
| 2026-04-16 13:53 | 51.63578 | -1.22683 | 3528 ft | 138 kts | 185° |
| 2026-04-16 13:53 | 51.62619 | -1.22690 | 3526 ft | 137 kts | 185° |
| 2026-04-16 13:53 | 51.61687 | -1.22429 | 3506 ft | 141 kts | 159° |
| 2026-04-16 13:53 | 51.60853 | -1.21624 | 3517 ft | 142 kts | 156° |
| 2026-04-16 13:54 | 51.59996 | -1.20824 | 3520 ft | 143 kts | 156° |
| 2026-04-16 13:54 | 51.59133 | -1.20022 | 3522 ft | 144 kts | 156° |
| 2026-04-16 13:54 | 51.58269 | -1.19213 | 3523 ft | 143 kts | 156° |
| 2026-04-16 13:54 | 51.57407 | -1.18410 | 3524 ft | 144 kts | 156° |
| 2026-04-16 13:55 | 51.56544 | -1.17603 | 3521 ft | 143 kts | 156° |
| 2026-04-16 13:55 | 51.55685 | -1.16791 | 3521 ft | 143 kts | 156° |
| 2026-04-16 13:55 | 51.54828 | -1.15980 | 3521 ft | 143 kts | 156° |
| 2026-04-16 13:55 | 51.53989 | -1.15122 | 3511 ft | 145 kts | 147° |
| 2026-04-16 13:56 | 51.53217 | -1.14118 | 3507 ft | 140 kts | 157° |
| 2026-04-16 13:56 | 51.52328 | -1.13521 | 3516 ft | 138 kts | 166° |
| 2026-04-16 13:56 | 51.51419 | -1.12987 | 3517 ft | 140 kts | 166° |
| 2026-04-16 13:56 | 51.50516 | -1.12468 | 3514 ft | 139 kts | 167° |
| 2026-04-16 13:57 | 51.49616 | -1.11953 | 3517 ft | 137 kts | 167° |
| 2026-04-16 13:57 | 51.48713 | -1.11441 | 3518 ft | 138 kts | 167° |
| 2026-04-16 13:57 | 51.47803 | -1.10925 | 3515 ft | 139 kts | 168° |
| 2026-04-16 13:58 | 51.45984 | -1.09892 | 3518 ft | 140 kts | 166° |
| 2026-04-16 13:58 | 51.45063 | -1.09370 | 3519 ft | 141 kts | 166° |
| 2026-04-16 13:58 | 51.44138 | -1.08845 | 3520 ft | 141 kts | 166° |
| 2026-04-16 13:58 | 51.43212 | -1.08321 | 3521 ft | 141 kts | 166° |
| 2026-04-16 13:59 | 51.42294 | -1.07800 | 3522 ft | 140 kts | 166° |
| 2026-04-16 13:59 | 51.41389 | -1.07288 | 3522 ft | 140 kts | 166° |
| 2026-04-16 13:59 | 51.40476 | -1.06770 | 3524 ft | 140 kts | 167° |
| 2026-04-16 13:59 | 51.39556 | -1.06251 | 3523 ft | 140 kts | 167° |
| 2026-04-16 14:00 | 51.38638 | -1.05731 | 3524 ft | 140 kts | 167° |
| 2026-04-16 14:00 | 51.37724 | -1.05214 | 3525 ft | 140 kts | 167° |
| 2026-04-16 14:00 | 51.36812 | -1.04699 | 3522 ft | 138 kts | 166° |
| 2026-04-16 14:00 | 51.35907 | -1.04187 | 3519 ft | 137 kts | 166° |
| 2026-04-16 14:01 | 51.35013 | -1.03683 | 3520 ft | 136 kts | 167° |